createdAt,value
2023-01-03T00:00:26.423Z,5.82
2023-01-03T00:02:59.928Z,8.20
2023-01-03T00:05:35.650Z,7.38
2023-01-03T00:08:08.983Z,8.50
2023-01-03T00:10:44.259Z,5.70
2023-01-03T00:13:44.818Z,5.05
2023-01-03T00:19:16.370Z,12.57
2023-01-03T00:21:49.926Z,7.68
2023-01-03T00:24:23.515Z,10.43
2023-01-03T00:26:58.312Z,6.85
2023-01-03T00:29:32.355Z,11.70
2023-01-03T00:32:07.291Z,6.35
2023-01-03T00:34:41.664Z,8.27
2023-01-03T00:37:16.123Z,5.32
2023-01-03T00:39:49.846Z,7.80
2023-01-03T00:42:24.750Z,6.30
2023-01-03T00:44:58.321Z,8.43
2023-01-03T00:47:31.895Z,6.60
2023-01-03T00:53:31.858Z,6.07
2023-01-03T00:56:06.356Z,9.23
2023-01-03T00:58:41.805Z,6.95
2023-01-03T01:01:17.835Z,7.82
2023-01-03T01:04:29.341Z,5.53
2023-01-03T01:07:05.210Z,6.05
2023-01-03T01:09:39.752Z,6.47
2023-01-03T01:12:13.453Z,5.13
2023-01-03T01:14:48.395Z,6.43
2023-01-03T01:17:23.327Z,8.38
2023-01-03T01:19:57.020Z,4.25
2023-01-03T01:22:30.547Z,4.82
2023-01-03T01:25:05.119Z,4.20
2023-01-03T01:27:38.688Z,5.40
2023-01-03T01:30:13.792Z,4.93
2023-01-03T01:32:47.161Z,4.18
2023-01-03T01:37:54.305Z,4.25
2023-01-03T01:40:27.854Z,5.80
2023-01-03T01:43:30.420Z,4.82
2023-01-03T01:46:12.513Z,6.10
2023-01-03T01:48:46.183Z,4.55
2023-01-03T01:53:56.971Z,3.67
2023-01-03T01:56:34.656Z,4.95
2023-01-03T01:59:09.949Z,3.47
2023-01-03T02:01:48.722Z,4.22
2023-01-03T02:04:25.452Z,4.47
2023-01-03T02:06:59.266Z,5.55
2023-01-03T02:09:34.313Z,3.92
2023-01-03T02:12:35.114Z,4.75
2023-01-03T02:15:18.301Z,3.92
2023-01-03T02:18:07.221Z,3.08
2023-01-03T02:21:09.758Z,5.20
2023-01-03T02:24:06.252Z,3.67
2023-01-03T02:26:54.568Z,3.33
2023-01-03T02:30:15.780Z,4.18
2023-01-03T02:32:55.317Z,3.65
2023-01-03T02:35:37.382Z,3.13
2023-01-03T02:38:17.684Z,2.95
2023-01-03T02:40:57.030Z,4.57
2023-01-03T02:43:38.160Z,3.33
2023-01-03T02:46:16.835Z,3.00
2023-01-03T02:48:56.536Z,3.38
2023-01-03T02:51:34.515Z,2.97
2023-01-03T02:54:11.773Z,3.05
2023-01-03T02:56:52.217Z,2.30
2023-01-03T02:59:32.589Z,4.70
2023-01-03T03:02:08.140Z,3.58
2023-01-03T03:04:46.636Z,2.53
2023-01-03T03:07:24.604Z,3.97
2023-01-03T03:10:15.296Z,3.28
2023-01-03T03:13:09.366Z,2.53
2023-01-03T03:15:50.833Z,5.03
2023-01-03T03:18:31.226Z,3.92
2023-01-03T03:21:27.440Z,3.10
2023-01-03T03:24:23.343Z,3.45
2023-01-03T03:26:59.818Z,3.30
2023-01-03T03:29:33.646Z,3.53
2023-01-03T03:34:41.878Z,2.85
2023-01-03T03:37:19.378Z,2.78
2023-01-03T03:40:10.257Z,5.57
2023-01-03T03:43:03.452Z,4.43
2023-01-03T03:45:42.808Z,3.70
2023-01-03T03:48:23.939Z,2.45
2023-01-03T03:51:04.347Z,3.72
2023-01-03T03:53:41.162Z,4.63
2023-01-03T03:56:17.880Z,3.45
2023-01-03T03:58:56.758Z,1.92
2023-01-03T04:01:31.538Z,2.55
2023-01-03T04:04:09.755Z,1.52
2023-01-03T04:06:48.251Z,2.45
2023-01-03T04:09:23.060Z,3.88
2023-01-03T04:11:56.580Z,4.03
2023-01-03T04:14:30.077Z,3.47
2023-01-03T04:17:03.638Z,2.28
2023-01-03T04:19:37.122Z,2.70
2023-01-03T04:22:10.661Z,2.15
2023-01-03T04:24:45.406Z,3.22
2023-01-03T04:27:18.879Z,2.53
2023-01-03T04:29:52.385Z,1.88
2023-01-03T04:32:25.853Z,3.67
2023-01-03T04:34:59.272Z,2.60
2023-01-03T04:37:32.816Z,2.20
2023-01-03T04:40:08.735Z,1.50
2023-01-03T04:42:59.581Z,3.85
2023-01-03T04:45:32.981Z,1.75
2023-01-03T04:50:40.627Z,2.53
2023-01-03T04:53:15.110Z,2.38
2023-01-03T04:55:51.017Z,4.32
2023-01-03T04:58:24.557Z,3.67
2023-01-03T05:01:01.425Z,2.17
2023-01-03T05:03:35.604Z,1.77
2023-01-03T05:06:10.372Z,1.90
2023-01-03T05:08:46.459Z,1.48
2023-01-03T05:11:21.317Z,2.03
2023-01-03T05:13:54.715Z,1.70
2023-01-03T05:16:28.466Z,2.35
2023-01-03T05:21:52.198Z,2.30
2023-01-03T05:24:51.381Z,2.53
2023-01-03T05:27:26.185Z,2.65
2023-01-03T05:29:59.569Z,3.50
2023-01-03T05:32:32.941Z,2.72
2023-01-03T05:35:07.105Z,1.92
2023-01-03T05:37:40.476Z,2.25
2023-01-03T05:40:14.045Z,1.10
2023-01-03T05:42:48.782Z,1.33
2023-01-03T05:45:25.641Z,2.92
2023-01-03T05:47:59.617Z,4.22
2023-01-03T05:50:33.225Z,2.35
2023-01-03T05:53:06.579Z,1.50
2023-01-03T05:55:40.347Z,2.03
2023-01-03T06:03:21.373Z,2.00
2023-01-03T06:05:54.724Z,2.45
2023-01-03T06:08:28.065Z,1.98
2023-01-03T06:11:01.381Z,2.17
2023-01-03T06:13:36.395Z,1.50
2023-01-03T06:16:29.798Z,2.75
2023-01-03T06:19:04.747Z,15.63
2023-01-03T06:21:38.593Z,2.67
2023-01-03T06:24:12.366Z,2.88
2023-01-03T06:29:20.455Z,1.23
2023-01-03T06:31:53.830Z,6.85
2023-01-03T06:34:27.212Z,3.50
2023-01-03T06:37:00.508Z,4.40
2023-01-03T06:39:34.087Z,4.70
2023-01-03T06:42:21.420Z,2.05
2023-01-03T06:45:13.640Z,3.83
2023-01-03T06:48:04.530Z,6.30
2023-01-03T06:50:57.952Z,4.32
2023-01-03T06:53:35.786Z,4.05
2023-01-03T06:56:09.890Z,4.85
2023-01-03T06:58:43.274Z,4.13
2023-01-03T07:01:18.156Z,6.82
2023-01-03T07:03:51.692Z,4.55
2023-01-03T07:06:25.120Z,2.42
2023-01-03T07:08:58.468Z,3.63
2023-01-03T07:11:32.076Z,4.60
2023-01-03T07:14:05.590Z,3.35
2023-01-03T07:16:43.288Z,12.13
2023-01-03T07:19:19.810Z,9.15
2023-01-03T07:21:53.205Z,9.68
2023-01-03T07:24:26.557Z,8.77
2023-01-03T07:27:00.123Z,11.77
2023-01-03T07:29:55.857Z,7.95
2023-01-03T07:32:30.616Z,11.55
2023-01-03T07:35:04.044Z,9.10
2023-01-03T07:37:37.381Z,13.60
2023-01-03T07:40:11.756Z,10.27
2023-01-03T07:43:02.318Z,5.80
2023-01-03T07:45:35.754Z,8.43
2023-01-03T07:48:11.143Z,11.10
2023-01-03T07:50:44.554Z,7.38
2023-01-03T07:53:18.150Z,7.60
2023-01-03T07:55:52.021Z,7.72
2023-01-03T07:58:25.331Z,5.47
2023-01-03T08:01:04.188Z,5.68
2023-01-03T08:03:40.051Z,4.90
2023-01-03T08:06:15.355Z,4.82
2023-01-03T08:09:09.897Z,5.00
2023-01-03T08:12:00.498Z,3.78
2023-01-03T08:14:33.877Z,3.13
2023-01-03T08:17:07.308Z,4.43
2023-01-03T08:19:45.674Z,5.45
2023-01-03T08:22:19.332Z,5.53
2023-01-03T08:24:52.598Z,2.38
2023-01-03T08:27:26.073Z,4.65
2023-01-03T08:29:59.439Z,3.42
2023-01-03T08:32:33.854Z,5.72
2023-01-03T08:35:11.273Z,4.97
2023-01-03T08:37:45.030Z,2.28
2023-01-03T08:42:52.153Z,2.80
2023-01-03T08:45:27.313Z,2.47
2023-01-03T08:48:02.776Z,4.07
2023-01-03T08:50:37.759Z,4.65
2023-01-03T08:53:11.191Z,6.43
2023-01-03T08:55:44.530Z,3.22
2023-01-03T08:58:18.450Z,5.68
2023-01-03T09:00:51.773Z,5.80
2023-01-03T09:03:25.226Z,7.43
2023-01-03T09:06:03.239Z,4.72
2023-01-03T09:08:36.773Z,7.18
2023-01-03T09:11:11.072Z,5.82
2023-01-03T09:13:44.450Z,3.92
2023-01-03T09:16:17.875Z,2.55
2023-01-03T09:18:51.344Z,3.50
2023-01-03T09:21:26.017Z,3.00
2023-01-03T09:23:59.782Z,2.75
2023-01-03T09:29:08.834Z,6.78
2023-01-03T09:31:42.379Z,2.85
2023-01-03T09:34:15.852Z,6.88
2023-01-03T09:36:50.588Z,4.75
2023-01-03T09:39:23.965Z,4.63
2023-01-03T09:42:14.712Z,4.97
2023-01-03T09:44:48.073Z,5.45
2023-01-03T09:47:25.079Z,6.93
2023-01-03T09:50:27.859Z,3.22
2023-01-03T09:53:10.990Z,4.28
2023-01-03T09:56:08.079Z,3.58
2023-01-03T09:58:59.699Z,4.30
2023-01-03T10:01:59.355Z,6.95
2023-01-03T10:05:11.116Z,2.95
2023-01-03T10:08:07.243Z,7.93
2023-01-03T10:10:49.601Z,4.95
2023-01-03T10:13:33.192Z,10.90
2023-01-03T10:16:14.283Z,5.57
2023-01-03T10:19:03.325Z,4.05
2023-01-03T10:21:47.718Z,7.15
2023-01-03T10:24:26.481Z,5.72
2023-01-03T10:27:08.598Z,4.57
2023-01-03T10:29:42.223Z,7.40
2023-01-03T10:32:45.140Z,5.03
2023-01-03T10:35:21.552Z,7.75
2023-01-03T10:37:57.762Z,4.90
2023-01-03T10:40:40.776Z,7.22
2023-01-03T10:43:20.096Z,8.57
2023-01-03T10:45:56.178Z,7.30
2023-01-03T10:49:00.335Z,7.03
2023-01-03T10:51:42.491Z,4.75
2023-01-03T10:54:27.703Z,3.00
2023-01-03T10:57:02.440Z,3.35
2023-01-03T10:59:37.366Z,5.07
2023-01-03T11:02:17.668Z,3.83
2023-01-03T11:05:12.478Z,6.22
2023-01-03T11:07:50.742Z,2.78
2023-01-03T11:10:25.222Z,2.72
2023-01-03T11:13:00.178Z,3.90
2023-01-03T11:15:39.646Z,5.68
2023-01-03T11:18:19.321Z,2.67
2023-01-03T11:20:58.796Z,3.13
2023-01-03T11:23:47.974Z,7.88
2023-01-03T11:26:34.636Z,4.53
2023-01-03T11:29:24.692Z,5.50
2023-01-03T11:32:12.468Z,7.93
2023-01-03T11:35:24.269Z,3.63
2023-01-03T11:38:10.978Z,5.13
2023-01-03T11:40:53.246Z,2.92
2023-01-03T11:43:42.151Z,2.10
2023-01-03T11:46:41.639Z,3.72
2023-01-03T11:49:27.141Z,2.80
2023-01-03T11:52:13.688Z,3.63
2023-01-03T11:55:20.867Z,4.00
2023-01-03T11:58:05.929Z,4.70
2023-01-03T12:00:50.058Z,7.93
2023-01-03T12:06:09.725Z,3.22
2023-01-03T12:08:49.617Z,4.13
2023-01-03T12:11:36.011Z,4.05
2023-01-03T12:14:35.471Z,2.22
2023-01-03T12:17:15.414Z,4.68
2023-01-03T12:19:55.855Z,2.88
2023-01-03T12:22:37.044Z,3.90
2023-01-03T12:25:21.473Z,5.88
2023-01-03T12:28:00.695Z,6.35
2023-01-03T12:30:41.231Z,4.25
2023-01-03T12:33:27.259Z,3.28
2023-01-03T12:36:05.726Z,5.00
2023-01-03T12:38:43.210Z,2.17
2023-01-03T12:41:29.294Z,3.78
2023-01-03T12:44:08.484Z,3.33
2023-01-03T12:46:48.182Z,2.63
2023-01-03T12:49:29.982Z,2.65
2023-01-03T12:52:04.805Z,8.52
2023-01-03T12:54:42.414Z,5.05
2023-01-03T12:57:50.371Z,2.63
2023-01-03T13:00:42.395Z,2.15
2023-01-03T13:03:23.235Z,2.95
2023-01-03T13:05:59.265Z,4.10
2023-01-03T13:08:41.170Z,5.70
2023-01-03T13:11:20.312Z,4.22
2023-01-03T13:13:59.872Z,4.50
2023-01-03T13:16:44.237Z,3.63
2023-01-03T13:19:54.304Z,3.25
2023-01-03T13:22:52.403Z,3.67
2023-01-03T13:25:37.550Z,6.07
2023-01-03T13:28:30.847Z,2.70
2023-01-03T13:31:45.710Z,3.90
2023-01-03T13:37:15.176Z,7.30
2023-01-03T13:40:34.745Z,2.75
2023-01-03T13:43:21.752Z,3.60
2023-01-03T13:46:06.280Z,3.58
2023-01-03T13:48:41.799Z,4.07
2023-01-03T13:51:50.389Z,3.92
2023-01-03T13:54:38.264Z,4.78
2023-01-03T13:57:36.114Z,3.13
2023-01-03T14:00:22.204Z,2.63
2023-01-03T14:03:33.216Z,8.48
2023-01-03T14:06:25.571Z,4.00
2023-01-03T14:09:37.539Z,3.88
2023-01-03T14:12:37.022Z,5.40
2023-01-03T14:15:25.529Z,4.78
2023-01-03T14:18:03.398Z,3.30
2023-01-03T14:20:38.583Z,2.85
2023-01-03T14:23:57.672Z,4.85
2023-01-03T14:26:16.231Z,3.60
2023-01-03T14:28:51.214Z,2.97
2023-01-03T14:31:28.574Z,5.45
2023-01-03T14:34:03.524Z,2.55
2023-01-03T14:36:47.045Z,3.97
2023-01-03T14:44:39.401Z,3.85
2023-01-03T14:47:18.598Z,3.53
2023-01-03T14:49:54.509Z,6.18
2023-01-03T14:52:31.607Z,3.42
2023-01-03T14:55:08.367Z,3.20
2023-01-03T14:57:43.155Z,4.82
2023-01-03T15:00:21.549Z,3.80
2023-01-03T15:02:58.504Z,5.50
2023-01-03T15:05:35.090Z,5.80
2023-01-03T15:08:09.860Z,5.13
2023-01-03T15:10:46.518Z,4.97
2023-01-03T15:13:24.079Z,8.32
2023-01-03T15:15:59.467Z,11.95
2023-01-03T15:18:38.271Z,4.90
2023-01-03T15:21:17.995Z,4.60
2023-01-03T15:23:55.240Z,9.25
2023-01-03T15:26:40.181Z,6.57
2023-01-03T15:29:15.785Z,9.38
2023-01-03T15:31:52.663Z,10.98
2023-01-03T15:34:38.043Z,8.55
2023-01-03T15:37:18.058Z,7.32
2023-01-03T15:39:53.421Z,13.10
2023-01-03T15:42:54.531Z,13.82
2023-01-03T15:48:14.650Z,14.70
2023-01-03T15:50:51.091Z,9.73
2023-01-03T15:53:28.344Z,16.23
2023-01-03T15:56:04.767Z,10.18
2023-01-03T15:58:38.605Z,17.13
2023-01-03T16:03:45.872Z,22.53
2023-01-03T16:08:54.006Z,13.55
2023-01-03T16:11:34.111Z,14.85
2023-01-03T16:14:14.499Z,27.65
2023-01-03T16:16:52.102Z,15.93
2023-01-03T16:19:28.178Z,16.80
2023-01-03T16:24:59.198Z,16.85
2023-01-03T16:27:32.588Z,17.88
2023-01-03T16:30:06.730Z,22.17
2023-01-03T16:32:40.160Z,20.48
2023-01-03T16:35:17.186Z,23.08
2023-01-03T16:37:51.922Z,25.10
2023-01-03T16:40:25.310Z,21.55
2023-01-03T16:42:58.634Z,18.48
2023-01-03T16:45:32.062Z,17.65
2023-01-03T16:48:06.402Z,17.45
2023-01-03T16:50:41.914Z,17.10
2023-01-03T16:53:28.011Z,18.40
2023-01-03T16:56:02.493Z,21.20
2023-01-03T16:58:35.878Z,21.27
2023-01-03T17:01:09.337Z,22.52
2023-01-03T17:03:42.980Z,19.13
2023-01-03T17:06:33.497Z,23.05
2023-01-03T17:11:50.921Z,26.90
2023-01-03T17:14:24.390Z,22.15
2023-01-03T17:17:00.704Z,31.63
2023-01-03T17:22:29.078Z,19.35
2023-01-03T17:25:03.893Z,22.80
2023-01-03T17:27:37.318Z,22.20
2023-01-03T17:30:17.805Z,19.83
2023-01-03T17:32:51.306Z,22.30
2023-01-03T17:35:24.710Z,23.42
2023-01-03T17:38:24.526Z,28.92
2023-01-03T17:40:55.344Z,20.92
2023-01-03T17:43:28.856Z,22.45
2023-01-03T17:46:23.741Z,35.20
2023-01-03T17:49:14.848Z,20.15
2023-01-03T17:51:48.559Z,18.50
2023-01-03T17:54:25.958Z,14.25
2023-01-03T17:57:01.154Z,14.60
2023-01-03T17:59:35.122Z,16.45
2023-01-03T18:02:19.123Z,16.15
2023-01-03T18:07:46.647Z,10.75
2023-01-03T18:10:23.637Z,12.52
2023-01-03T18:12:58.801Z,15.50
2023-01-03T18:15:32.286Z,13.65
2023-01-03T18:18:05.749Z,11.85
2023-01-03T18:20:39.132Z,12.98
2023-01-03T18:23:18.060Z,11.23
2023-01-03T18:25:52.936Z,11.68
2023-01-03T18:28:28.823Z,14.27
2023-01-03T18:31:02.520Z,15.02
2023-01-03T18:33:35.989Z,13.95
2023-01-03T18:36:22.391Z,15.18
2023-01-03T18:39:03.234Z,12.82
2023-01-03T18:41:36.668Z,12.85
2023-01-03T18:44:20.568Z,11.48
2023-01-03T18:49:27.872Z,13.93
2023-01-03T18:54:39.436Z,13.23
2023-01-03T18:57:13.412Z,15.77
2023-01-03T18:59:49.539Z,10.82
2023-01-03T19:02:23.863Z,14.93
2023-01-03T19:04:57.565Z,13.00
2023-01-03T19:07:33.777Z,12.38
2023-01-03T19:10:17.345Z,13.55
2023-01-03T19:12:52.359Z,13.60
2023-01-03T19:15:30.149Z,15.45
2023-01-03T19:18:05.280Z,12.25
2023-01-03T19:20:38.969Z,14.43
2023-01-03T19:25:50.891Z,8.85
2023-01-03T19:28:28.771Z,9.82
2023-01-03T19:31:03.655Z,7.45
2023-01-03T19:33:37.460Z,11.93
2023-01-03T19:38:49.522Z,10.68
2023-01-03T19:41:23.107Z,8.90
2023-01-03T19:43:56.500Z,10.38
2023-01-03T19:46:31.358Z,8.18
2023-01-03T19:49:06.913Z,12.70
2023-01-03T19:51:40.244Z,13.35
2023-01-03T19:54:13.555Z,10.88
2023-01-03T19:56:47.189Z,9.43
2023-01-03T19:59:26.866Z,14.73
2023-01-03T20:04:56.759Z,16.75
2023-01-03T20:07:30.434Z,9.18
2023-01-03T20:10:03.877Z,7.53
2023-01-03T20:12:48.986Z,6.93
2023-01-03T20:15:29.331Z,8.77
2023-01-03T20:18:09.153Z,7.18
2023-01-03T20:20:42.507Z,9.48
2023-01-03T20:23:17.981Z,9.50
2023-01-03T20:25:52.122Z,7.05
2023-01-03T20:28:29.354Z,7.50
2023-01-03T20:31:03.529Z,7.50
2023-01-03T20:33:38.385Z,5.78
2023-01-03T20:36:22.614Z,9.48
2023-01-03T20:38:57.674Z,6.80
2023-01-03T20:41:37.251Z,7.75
2023-01-03T20:44:11.347Z,8.60
2023-01-03T20:46:44.838Z,9.80
2023-01-03T20:49:22.533Z,6.63
2023-01-03T20:51:56.012Z,7.53
2023-01-03T20:54:29.600Z,9.23
2023-01-03T20:57:04.157Z,14.13
2023-01-03T20:59:38.163Z,6.50
2023-01-03T21:02:12.205Z,6.97
2023-01-03T21:04:47.055Z,9.02
2023-01-03T21:07:48.374Z,7.10
2023-01-03T21:10:25.757Z,8.75
2023-01-03T21:12:59.995Z,11.60
2023-01-03T21:15:35.577Z,8.70
2023-01-03T21:18:11.493Z,8.55
2023-01-03T21:20:47.706Z,7.57
2023-01-03T21:23:22.421Z,24.33
2023-01-03T21:25:56.506Z,8.27
2023-01-03T21:28:29.846Z,7.18
2023-01-03T21:31:05.484Z,6.35
2023-01-03T21:33:39.131Z,6.82
2023-01-03T21:36:20.843Z,10.07
2023-01-03T21:41:31.926Z,6.97
2023-01-03T21:44:07.455Z,11.68
2023-01-03T21:46:40.846Z,14.02
2023-01-03T21:49:14.209Z,7.18
2023-01-03T21:51:49.055Z,13.73
2023-01-03T21:54:22.551Z,8.95
2023-01-03T21:56:55.912Z,6.47
2023-01-03T21:59:31.481Z,9.38
2023-01-03T22:02:22.736Z,9.60
2023-01-03T22:04:59.774Z,6.85
2023-01-03T22:07:34.475Z,8.20
2023-01-03T22:10:18.971Z,6.10
2023-01-03T22:12:55.432Z,7.13
2023-01-03T22:15:28.981Z,7.45
2023-01-03T22:18:02.366Z,7.25
2023-01-03T22:20:38.752Z,7.85
2023-01-03T22:23:14.237Z,7.13
2023-01-03T22:25:47.652Z,9.82
2023-01-03T22:28:23.798Z,8.68
2023-01-03T22:30:57.274Z,7.70
2023-01-03T22:33:30.593Z,8.82
2023-01-03T22:36:04.152Z,8.95
2023-01-03T22:38:39.483Z,8.95
2023-01-03T22:41:15.631Z,13.10
2023-01-03T22:43:48.966Z,6.75
2023-01-03T22:46:22.383Z,6.22
2023-01-03T22:48:56.483Z,6.47
2023-01-03T22:51:29.904Z,5.63
2023-01-03T22:54:04.955Z,3.80
2023-01-03T22:56:38.250Z,3.67
2023-01-03T22:59:11.566Z,6.22
2023-01-03T23:01:44.995Z,7.13
2023-01-03T23:04:19.888Z,6.88
2023-01-03T23:06:54.435Z,8.40
2023-01-03T23:09:29.137Z,8.70
2023-01-03T23:12:19.672Z,4.20
2023-01-03T23:14:53.066Z,5.88
2023-01-03T23:17:43.828Z,5.18
2023-01-03T23:20:17.222Z,8.07
2023-01-03T23:22:57.493Z,8.40
2023-01-03T23:25:36.997Z,4.38
2023-01-03T23:28:10.334Z,11.48
2023-01-03T23:30:43.731Z,6.75
2023-01-03T23:33:17.196Z,5.90
2023-01-03T23:35:51.093Z,6.07
2023-01-03T23:38:24.445Z,4.65
2023-01-03T23:40:59.591Z,6.18
2023-01-03T23:43:33.035Z,5.18
2023-01-03T23:46:07.481Z,6.00
2023-01-03T23:48:40.865Z,4.43
2023-01-03T23:51:14.734Z,5.70
2023-01-03T23:53:48.093Z,5.43
2023-01-03T23:56:24.688Z,7.75
2023-01-03T23:58:58.183Z,5.40
